sensor_id;sensor_type;location;lat;lon;timestamp;temperature;humidity
19031;DHT22;9648;51.130;13.978;2023-08-20T00:01:05;20.20;99.90
19031;DHT22;9648;51.130;13.978;2023-08-20T00:03:34;20.20;99.90
19031;DHT22;9648;51.130;13.978;2023-08-20T00:06:01;20.20;99.90
19031;DHT22;9648;51.130;13.978;2023-08-20T00:08:29;20.20;99.90
19031;DHT22;9648;51.130;13.978;2023-08-20T00:10:56;20.20;99.90
19031;DHT22;9648;51.130;13.978;2023-08-20T00:13:23;20.30;99.90
19031;DHT22;9648;51.130;13.978;2023-08-20T00:15:50;20.30;99.90
19031;DHT22;9648;51.130;13.978;2023-08-20T00:18:19;20.30;99.90
19031;DHT22;9648;51.130;13.978;2023-08-20T00:20:46;20.30;99.90
19031;DHT22;9648;51.130;13.978;2023-08-20T00:23:13;20.30;99.90
19031;DHT22;9648;51.130;13.978;2023-08-20T00:25:41;20.30;99.90
19031;DHT22;9648;51.130;13.978;2023-08-20T00:28:07;20.30;99.90
19031;DHT22;9648;51.130;13.978;2023-08-20T00:30:34;20.40;99.90
19031;DHT22;9648;51.130;13.978;2023-08-20T00:33:01;20.40;99.90
19031;DHT22;9648;51.130;13.978;2023-08-20T00:35:29;20.40;99.90
19031;DHT22;9648;51.130;13.978;2023-08-20T00:37:56;20.50;99.90
19031;DHT22;9648;51.130;13.978;2023-08-20T00:40:23;20.50;99.90
19031;DHT22;9648;51.130;13.978;2023-08-20T00:42:50;20.50;99.90
19031;DHT22;9648;51.130;13.978;2023-08-20T00:45:17;20.50;99.90
19031;DHT22;9648;51.130;13.978;2023-08-20T00:47:44;20.50;99.90
19031;DHT22;9648;51.130;13.978;2023-08-20T00:50:11;20.50;99.90
19031;DHT22;9648;51.130;13.978;2023-08-20T00:52:40;20.50;99.90
19031;DHT22;9648;51.130;13.978;2023-08-20T00:55:08;20.60;99.90
19031;DHT22;9648;51.130;13.978;2023-08-20T00:57:35;20.60;99.90
19031;DHT22;9648;51.130;13.978;2023-08-20T01:00:04;20.60;99.90
19031;DHT22;9648;51.130;13.978;2023-08-20T01:02:34;20.60;99.90
19031;DHT22;9648;51.130;13.978;2023-08-20T01:05:01;20.60;99.90
19031;DHT22;9648;51.130;13.978;2023-08-20T01:07:35;20.60;99.90
19031;DHT22;9648;51.130;13.978;2023-08-20T01:10:11;20.70;99.90
19031;DHT22;9648;51.130;13.978;2023-08-20T01:12:41;20.60;99.90
19031;DHT22;9648;51.130;13.978;2023-08-20T01:15:08;20.60;99.90
19031;DHT22;9648;51.130;13.978;2023-08-20T01:17:39;20.60;99.90
19031;DHT22;9648;51.130;13.978;2023-08-20T01:20:07;20.60;99.90
19031;DHT22;9648;51.130;13.978;2023-08-20T01:23:01;20.60;99.90
19031;DHT22;9648;51.130;13.978;2023-08-20T01:25:41;20.60;99.90
19031;DHT22;9648;51.130;13.978;2023-08-20T01:28:23;20.70;99.90
19031;DHT22;9648;51.130;13.978;2023-08-20T01:30:51;20.70;99.90
19031;DHT22;9648;51.130;13.978;2023-08-20T01:33:19;20.70;99.90
19031;DHT22;9648;51.130;13.978;2023-08-20T01:35:46;20.70;99.90
19031;DHT22;9648;51.130;13.978;2023-08-20T01:38:13;20.70;99.90
19031;DHT22;9648;51.130;13.978;2023-08-20T01:40:40;20.70;99.90
19031;DHT22;9648;51.130;13.978;2023-08-20T01:43:07;20.70;99.90
19031;DHT22;9648;51.130;13.978;2023-08-20T01:45:35;20.80;99.90
19031;DHT22;9648;51.130;13.978;2023-08-20T01:48:02;20.70;99.90
19031;DHT22;9648;51.130;13.978;2023-08-20T01:50:29;20.70;99.90
19031;DHT22;9648;51.130;13.978;2023-08-20T01:52:56;20.70;99.90
19031;DHT22;9648;51.130;13.978;2023-08-20T01:55:23;20.80;99.90
19031;DHT22;9648;51.130;13.978;2023-08-20T01:57:53;20.80;99.90
19031;DHT22;9648;51.130;13.978;2023-08-20T02:00:19;20.80;99.90
19031;DHT22;9648;51.130;13.978;2023-08-20T02:02:48;20.80;99.90
19031;DHT22;9648;51.130;13.978;2023-08-20T02:05:14;20.80;99.90
19031;DHT22;9648;51.130;13.978;2023-08-20T02:07:41;20.70;99.90
19031;DHT22;9648;51.130;13.978;2023-08-20T02:10:08;20.80;99.90
19031;DHT22;9648;51.130;13.978;2023-08-20T02:12:35;20.80;99.90
19031;DHT22;9648;51.130;13.978;2023-08-20T02:15:02;20.70;99.90
19031;DHT22;9648;51.130;13.978;2023-08-20T02:17:30;20.70;99.90
19031;DHT22;9648;51.130;13.978;2023-08-20T02:19:58;20.70;99.90
19031;DHT22;9648;51.130;13.978;2023-08-20T02:22:25;20.70;99.90
19031;DHT22;9648;51.130;13.978;2023-08-20T02:24:54;20.70;99.90
19031;DHT22;9648;51.130;13.978;2023-08-20T02:27:22;20.70;99.90
19031;DHT22;9648;51.130;13.978;2023-08-20T02:29:49;20.70;99.90
19031;DHT22;9648;51.130;13.978;2023-08-20T02:32:15;20.70;99.90
19031;DHT22;9648;51.130;13.978;2023-08-20T02:34:43;20.70;99.90
19031;DHT22;9648;51.130;13.978;2023-08-20T02:37:11;20.70;99.90
19031;DHT22;9648;51.130;13.978;2023-08-20T02:39:38;20.70;99.90
19031;DHT22;9648;51.130;13.978;2023-08-20T02:42:04;20.80;99.90
19031;DHT22;9648;51.130;13.978;2023-08-20T02:44:31;20.70;99.90
19031;DHT22;9648;51.130;13.978;2023-08-20T02:46:58;20.70;99.90
19031;DHT22;9648;51.130;13.978;2023-08-20T02:49:25;20.70;99.90
19031;DHT22;9648;51.130;13.978;2023-08-20T02:51:52;20.70;99.90
19031;DHT22;9648;51.130;13.978;2023-08-20T02:54:20;20.70;99.90
19031;DHT22;9648;51.130;13.978;2023-08-20T02:56:47;20.70;99.90
19031;DHT22;9648;51.130;13.978;2023-08-20T02:59:14;20.70;99.90
19031;DHT22;9648;51.130;13.978;2023-08-20T03:01:41;20.70;99.90
19031;DHT22;9648;51.130;13.978;2023-08-20T03:04:08;20.70;99.90
19031;DHT22;9648;51.130;13.978;2023-08-20T03:06:35;20.70;99.90
19031;DHT22;9648;51.130;13.978;2023-08-20T03:09:02;20.70;99.90
19031;DHT22;9648;51.130;13.978;2023-08-20T03:11:31;20.80;99.90
19031;DHT22;9648;51.130;13.978;2023-08-20T03:13:58;20.70;99.90
19031;DHT22;9648;51.130;13.978;2023-08-20T03:16:25;20.70;99.90
19031;DHT22;9648;51.130;13.978;2023-08-20T03:18:52;20.70;99.90
19031;DHT22;9648;51.130;13.978;2023-08-20T03:21:18;20.70;99.90
19031;DHT22;9648;51.130;13.978;2023-08-20T03:23:45;20.70;99.90
19031;DHT22;9648;51.130;13.978;2023-08-20T03:26:12;20.70;99.90
19031;DHT22;9648;51.130;13.978;2023-08-20T03:28:40;20.70;99.90
19031;DHT22;9648;51.130;13.978;2023-08-20T03:31:07;20.70;99.90
19031;DHT22;9648;51.130;13.978;2023-08-20T03:33:33;20.70;99.90
19031;DHT22;9648;51.130;13.978;2023-08-20T03:36:00;20.70;99.90
19031;DHT22;9648;51.130;13.978;2023-08-20T03:38:27;20.80;99.90
19031;DHT22;9648;51.130;13.978;2023-08-20T03:40:55;20.80;99.90
19031;DHT22;9648;51.130;13.978;2023-08-20T03:43:21;20.80;99.90
19031;DHT22;9648;51.130;13.978;2023-08-20T03:45:51;20.90;99.90
19031;DHT22;9648;51.130;13.978;2023-08-20T03:48:18;20.90;99.90
19031;DHT22;9648;51.130;13.978;2023-08-20T03:50:45;20.90;99.90
19031;DHT22;9648;51.130;13.978;2023-08-20T03:53:12;21.00;99.90
19031;DHT22;9648;51.130;13.978;2023-08-20T03:55:39;21.00;99.90
19031;DHT22;9648;51.130;13.978;2023-08-20T03:58:06;21.00;99.90
19031;DHT22;9648;51.130;13.978;2023-08-20T04:00:34;21.10;99.90
19031;DHT22;9648;51.130;13.978;2023-08-20T04:03:03;21.10;99.90
19031;DHT22;9648;51.130;13.978;2023-08-20T04:05:34;21.10;99.90
19031;DHT22;9648;51.130;13.978;2023-08-20T04:08:01;21.10;99.90
19031;DHT22;9648;51.130;13.978;2023-08-20T04:10:28;21.10;99.90
19031;DHT22;9648;51.130;13.978;2023-08-20T04:12:55;21.10;99.90
19031;DHT22;9648;51.130;13.978;2023-08-20T04:15:22;21.20;99.90
19031;DHT22;9648;51.130;13.978;2023-08-20T04:17:49;21.20;99.90
19031;DHT22;9648;51.130;13.978;2023-08-20T04:20:17;21.20;99.90
19031;DHT22;9648;51.130;13.978;2023-08-20T04:22:44;21.20;99.90
19031;DHT22;9648;51.130;13.978;2023-08-20T04:25:11;21.20;99.90
19031;DHT22;9648;51.130;13.978;2023-08-20T04:27:38;21.20;99.90
19031;DHT22;9648;51.130;13.978;2023-08-20T04:30:06;21.20;99.90
19031;DHT22;9648;51.130;13.978;2023-08-20T04:32:33;21.20;99.90
19031;DHT22;9648;51.130;13.978;2023-08-20T04:35:00;21.20;99.90
19031;DHT22;9648;51.130;13.978;2023-08-20T04:37:28;21.20;99.90
19031;DHT22;9648;51.130;13.978;2023-08-20T04:39:55;21.20;99.90
19031;DHT22;9648;51.130;13.978;2023-08-20T04:42:22;21.30;99.90
19031;DHT22;9648;51.130;13.978;2023-08-20T04:44:48;21.30;99.90
19031;DHT22;9648;51.130;13.978;2023-08-20T04:47:15;21.30;99.90
19031;DHT22;9648;51.130;13.978;2023-08-20T04:49:45;21.30;99.90
19031;DHT22;9648;51.130;13.978;2023-08-20T04:52:11;21.30;99.90
19031;DHT22;9648;51.130;13.978;2023-08-20T04:54:39;21.30;99.90
19031;DHT22;9648;51.130;13.978;2023-08-20T04:57:06;21.30;99.90
19031;DHT22;9648;51.130;13.978;2023-08-20T04:59:33;21.40;99.90
19031;DHT22;9648;51.130;13.978;2023-08-20T05:02:00;21.40;99.90
19031;DHT22;9648;51.130;13.978;2023-08-20T05:04:26;21.40;99.90
19031;DHT22;9648;51.130;13.978;2023-08-20T05:06:53;21.40;99.90
19031;DHT22;9648;51.130;13.978;2023-08-20T05:09:21;21.40;99.90
19031;DHT22;9648;51.130;13.978;2023-08-20T05:11:49;21.40;99.90
19031;DHT22;9648;51.130;13.978;2023-08-20T05:14:16;21.40;99.90
19031;DHT22;9648;51.130;13.978;2023-08-20T05:16:43;21.40;99.90
19031;DHT22;9648;51.130;13.978;2023-08-20T05:19:09;21.50;99.90
19031;DHT22;9648;51.130;13.978;2023-08-20T05:21:36;21.50;99.90
19031;DHT22;9648;51.130;13.978;2023-08-20T05:24:04;21.50;99.90
19031;DHT22;9648;51.130;13.978;2023-08-20T05:26:30;21.50;99.90
19031;DHT22;9648;51.130;13.978;2023-08-20T05:28:59;21.50;99.90
19031;DHT22;9648;51.130;13.978;2023-08-20T05:31:25;21.60;99.90
19031;DHT22;9648;51.130;13.978;2023-08-20T05:33:52;21.60;99.90
19031;DHT22;9648;51.130;13.978;2023-08-20T05:36:19;21.70;99.90
19031;DHT22;9648;51.130;13.978;2023-08-20T05:38:46;21.80;99.90
19031;DHT22;9648;51.130;13.978;2023-08-20T05:41:12;21.90;99.90
19031;DHT22;9648;51.130;13.978;2023-08-20T05:43:39;22.00;99.90
19031;DHT22;9648;51.130;13.978;2023-08-20T05:46:07;22.10;99.90
19031;DHT22;9648;51.130;13.978;2023-08-20T05:48:34;22.20;99.90
19031;DHT22;9648;51.130;13.978;2023-08-20T05:51:01;22.40;99.90
19031;DHT22;9648;51.130;13.978;2023-08-20T05:53:28;22.50;99.90
19031;DHT22;9648;51.130;13.978;2023-08-20T05:55:54;22.60;99.90
19031;DHT22;9648;51.130;13.978;2023-08-20T05:58:21;22.60;99.90
19031;DHT22;9648;51.130;13.978;2023-08-20T06:00:48;22.70;99.90
19031;DHT22;9648;51.130;13.978;2023-08-20T06:03:16;22.70;99.90
19031;DHT22;9648;51.130;13.978;2023-08-20T06:05:43;22.70;99.90
19031;DHT22;9648;51.130;13.978;2023-08-20T06:08:09;22.70;99.90
19031;DHT22;9648;51.130;13.978;2023-08-20T06:10:36;22.70;99.90
19031;DHT22;9648;51.130;13.978;2023-08-20T06:13:03;22.70;99.90
19031;DHT22;9648;51.130;13.978;2023-08-20T06:15:30;22.70;99.90
19031;DHT22;9648;51.130;13.978;2023-08-20T06:17:57;22.70;99.90
19031;DHT22;9648;51.130;13.978;2023-08-20T06:20:25;22.70;99.90
19031;DHT22;9648;51.130;13.978;2023-08-20T06:22:52;22.80;99.90
19031;DHT22;9648;51.130;13.978;2023-08-20T06:25:19;22.80;99.90
19031;DHT22;9648;51.130;13.978;2023-08-20T06:27:46;22.90;99.90
19031;DHT22;9648;51.130;13.978;2023-08-20T06:30:13;22.90;99.90
19031;DHT22;9648;51.130;13.978;2023-08-20T06:32:39;23.00;99.90
19031;DHT22;9648;51.130;13.978;2023-08-20T06:35:07;23.10;99.90
19031;DHT22;9648;51.130;13.978;2023-08-20T06:37:38;23.10;99.90
19031;DHT22;9648;51.130;13.978;2023-08-20T06:40:06;23.10;99.90
19031;DHT22;9648;51.130;13.978;2023-08-20T06:42:33;23.20;99.90
19031;DHT22;9648;51.130;13.978;2023-08-20T06:45:00;23.30;99.90
19031;DHT22;9648;51.130;13.978;2023-08-20T06:47:27;23.40;99.90
19031;DHT22;9648;51.130;13.978;2023-08-20T06:49:53;23.50;99.90
19031;DHT22;9648;51.130;13.978;2023-08-20T06:52:20;23.60;99.90
19031;DHT22;9648;51.130;13.978;2023-08-20T06:54:48;23.70;99.90
19031;DHT22;9648;51.130;13.978;2023-08-20T06:57:15;23.70;99.90
19031;DHT22;9648;51.130;13.978;2023-08-20T06:59:42;23.70;99.90
19031;DHT22;9648;51.130;13.978;2023-08-20T07:02:09;23.70;99.90
19031;DHT22;9648;51.130;13.978;2023-08-20T07:04:36;23.70;99.90
19031;DHT22;9648;51.130;13.978;2023-08-20T07:07:03;23.60;99.90
19031;DHT22;9648;51.130;13.978;2023-08-20T07:09:31;23.60;99.90
19031;DHT22;9648;51.130;13.978;2023-08-20T07:11:59;23.60;99.90
19031;DHT22;9648;51.130;13.978;2023-08-20T07:14:26;23.60;99.90
19031;DHT22;9648;51.130;13.978;2023-08-20T07:16:53;23.50;99.90
19031;DHT22;9648;51.130;13.978;2023-08-20T07:19:19;23.60;99.90
19031;DHT22;9648;51.130;13.978;2023-08-20T07:21:46;23.70;99.90
19031;DHT22;9648;51.130;13.978;2023-08-20T07:24:13;23.80;99.90
19031;DHT22;9648;51.130;13.978;2023-08-20T07:26:40;23.80;99.90
19031;DHT22;9648;51.130;13.978;2023-08-20T07:29:08;23.90;99.90
19031;DHT22;9648;51.130;13.978;2023-08-20T07:31:35;24.00;99.90
19031;DHT22;9648;51.130;13.978;2023-08-20T07:34:02;24.10;99.90
19031;DHT22;9648;51.130;13.978;2023-08-20T07:36:30;24.10;99.90
19031;DHT22;9648;51.130;13.978;2023-08-20T07:38:57;24.20;99.90
19031;DHT22;9648;51.130;13.978;2023-08-20T07:41:23;24.30;99.90
19031;DHT22;9648;51.130;13.978;2023-08-20T07:43:50;24.30;99.90
19031;DHT22;9648;51.130;13.978;2023-08-20T07:46:19;24.30;99.90
19031;DHT22;9648;51.130;13.978;2023-08-20T07:48:46;24.30;99.90
19031;DHT22;9648;51.130;13.978;2023-08-20T07:51:13;24.30;99.90
19031;DHT22;9648;51.130;13.978;2023-08-20T07:53:40;24.30;99.90
19031;DHT22;9648;51.130;13.978;2023-08-20T07:56:06;24.30;99.90
19031;DHT22;9648;51.130;13.978;2023-08-20T07:58:34;24.30;99.90
19031;DHT22;9648;51.130;13.978;2023-08-20T08:01:01;24.40;99.90
19031;DHT22;9648;51.130;13.978;2023-08-20T08:03:29;24.50;99.90
19031;DHT22;9648;51.130;13.978;2023-08-20T08:05:56;24.60;99.90
19031;DHT22;9648;51.130;13.978;2023-08-20T08:08:24;24.70;99.90
19031;DHT22;9648;51.130;13.978;2023-08-20T08:10:51;24.90;99.90
19031;DHT22;9648;51.130;13.978;2023-08-20T08:13:20;25.10;99.90
19031;DHT22;9648;51.130;13.978;2023-08-20T08:15:47;25.20;99.90
19031;DHT22;9648;51.130;13.978;2023-08-20T08:18:14;25.30;99.90
19031;DHT22;9648;51.130;13.978;2023-08-20T08:20:43;25.30;99.90
19031;DHT22;9648;51.130;13.978;2023-08-20T08:23:10;25.30;99.90
19031;DHT22;9648;51.130;13.978;2023-08-20T08:25:37;25.40;99.90
19031;DHT22;9648;51.130;13.978;2023-08-20T08:28:04;25.40;99.90
19031;DHT22;9648;51.130;13.978;2023-08-20T08:30:31;25.50;99.90
19031;DHT22;9648;51.130;13.978;2023-08-20T08:32:58;25.60;99.90
19031;DHT22;9648;51.130;13.978;2023-08-20T08:35:25;25.60;99.90
19031;DHT22;9648;51.130;13.978;2023-08-20T08:37:53;25.70;99.90
19031;DHT22;9648;51.130;13.978;2023-08-20T08:40:20;25.80;99.90
19031;DHT22;9648;51.130;13.978;2023-08-20T08:42:48;26.00;99.90
19031;DHT22;9648;51.130;13.978;2023-08-20T08:45:17;26.20;99.90
19031;DHT22;9648;51.130;13.978;2023-08-20T08:47:45;26.30;99.90
19031;DHT22;9648;51.130;13.978;2023-08-20T08:50:12;26.40;99.90
19031;DHT22;9648;51.130;13.978;2023-08-20T08:52:39;26.30;99.90
19031;DHT22;9648;51.130;13.978;2023-08-20T08:55:09;26.20;99.90
19031;DHT22;9648;51.130;13.978;2023-08-20T08:57:36;26.10;99.90
19031;DHT22;9648;51.130;13.978;2023-08-20T09:00:04;26.00;99.90
19031;DHT22;9648;51.130;13.978;2023-08-20T09:02:31;25.90;99.90
19031;DHT22;9648;51.130;13.978;2023-08-20T09:04:58;25.80;99.90
19031;DHT22;9648;51.130;13.978;2023-08-20T09:07:25;25.70;99.90
19031;DHT22;9648;51.130;13.978;2023-08-20T09:09:57;25.60;99.90
19031;DHT22;9648;51.130;13.978;2023-08-20T09:12:26;25.50;99.90
19031;DHT22;9648;51.130;13.978;2023-08-20T09:14:53;25.50;99.90
19031;DHT22;9648;51.130;13.978;2023-08-20T09:17:25;25.50;99.90
19031;DHT22;9648;51.130;13.978;2023-08-20T09:19:54;25.40;99.90
19031;DHT22;9648;51.130;13.978;2023-08-20T09:22:22;25.40;99.90
19031;DHT22;9648;51.130;13.978;2023-08-20T09:24:52;25.40;99.90
19031;DHT22;9648;51.130;13.978;2023-08-20T09:27:19;25.40;99.90
19031;DHT22;9648;51.130;13.978;2023-08-20T09:29:49;25.40;99.90
19031;DHT22;9648;51.130;13.978;2023-08-20T09:32:17;25.40;99.90
19031;DHT22;9648;51.130;13.978;2023-08-20T09:34:44;25.40;99.90
19031;DHT22;9648;51.130;13.978;2023-08-20T09:37:13;25.40;99.90
19031;DHT22;9648;51.130;13.978;2023-08-20T09:39:40;25.30;99.90
19031;DHT22;9648;51.130;13.978;2023-08-20T09:42:08;25.20;99.90
19031;DHT22;9648;51.130;13.978;2023-08-20T09:44:37;25.30;99.90
19031;DHT22;9648;51.130;13.978;2023-08-20T09:47:09;25.40;99.90
19031;DHT22;9648;51.130;13.978;2023-08-20T09:49:37;25.60;99.90
19031;DHT22;9648;51.130;13.978;2023-08-20T09:52:06;25.70;99.90
19031;DHT22;9648;51.130;13.978;2023-08-20T09:54:45;25.70;99.90
19031;DHT22;9648;51.130;13.978;2023-08-20T09:57:26;25.80;99.90
19031;DHT22;9648;51.130;13.978;2023-08-20T09:59:54;25.90;99.90
19031;DHT22;9648;51.130;13.978;2023-08-20T10:02:24;26.00;99.90
19031;DHT22;9648;51.130;13.978;2023-08-20T10:04:52;26.10;99.90
19031;DHT22;9648;51.130;13.978;2023-08-20T10:07:19;26.10;99.90
19031;DHT22;9648;51.130;13.978;2023-08-20T10:09:46;26.00;99.90
19031;DHT22;9648;51.130;13.978;2023-08-20T10:12:16;25.90;99.90
19031;DHT22;9648;51.130;13.978;2023-08-20T10:14:43;25.90;99.90
19031;DHT22;9648;51.130;13.978;2023-08-20T10:17:11;25.90;99.90
19031;DHT22;9648;51.130;13.978;2023-08-20T10:19:42;26.00;99.90
19031;DHT22;9648;51.130;13.978;2023-08-20T10:22:09;26.00;99.90
19031;DHT22;9648;51.130;13.978;2023-08-20T10:24:41;26.00;99.90
19031;DHT22;9648;51.130;13.978;2023-08-20T10:27:09;26.10;99.90
19031;DHT22;9648;51.130;13.978;2023-08-20T10:29:37;26.10;99.90
19031;DHT22;9648;51.130;13.978;2023-08-20T10:32:06;26.10;99.90
19031;DHT22;9648;51.130;13.978;2023-08-20T10:34:33;26.10;99.90
19031;DHT22;9648;51.130;13.978;2023-08-20T10:37:08;26.10;99.90
19031;DHT22;9648;51.130;13.978;2023-08-20T10:39:35;26.10;99.90
19031;DHT22;9648;51.130;13.978;2023-08-20T10:42:09;26.30;99.90
19031;DHT22;9648;51.130;13.978;2023-08-20T10:44:56;26.40;99.90
19031;DHT22;9648;51.130;13.978;2023-08-20T10:47:24;26.50;99.90
19031;DHT22;9648;51.130;13.978;2023-08-20T10:49:52;26.60;99.90
19031;DHT22;9648;51.130;13.978;2023-08-20T10:52:20;26.70;99.90
19031;DHT22;9648;51.130;13.978;2023-08-20T10:54:50;26.70;99.90
19031;DHT22;9648;51.130;13.978;2023-08-20T10:57:17;26.60;99.90
19031;DHT22;9648;51.130;13.978;2023-08-20T10:59:56;26.70;99.90
19031;DHT22;9648;51.130;13.978;2023-08-20T11:02:23;26.70;99.90
19031;DHT22;9648;51.130;13.978;2023-08-20T11:04:51;26.80;99.90
19031;DHT22;9648;51.130;13.978;2023-08-20T11:07:20;27.10;99.90
19031;DHT22;9648;51.130;13.978;2023-08-20T11:09:47;27.20;99.90
19031;DHT22;9648;51.130;13.978;2023-08-20T11:12:15;27.20;99.90
19031;DHT22;9648;51.130;13.978;2023-08-20T11:14:42;27.30;99.90
19031;DHT22;9648;51.130;13.978;2023-08-20T11:17:09;27.20;99.90
19031;DHT22;9648;51.130;13.978;2023-08-20T11:19:36;27.20;99.90
19031;DHT22;9648;51.130;13.978;2023-08-20T11:22:03;27.20;99.90
19031;DHT22;9648;51.130;13.978;2023-08-20T11:24:31;27.20;99.90
19031;DHT22;9648;51.130;13.978;2023-08-20T11:26:58;27.30;99.90
19031;DHT22;9648;51.130;13.978;2023-08-20T11:29:26;27.40;99.90
19031;DHT22;9648;51.130;13.978;2023-08-20T11:31:52;27.60;99.90
19031;DHT22;9648;51.130;13.978;2023-08-20T11:34:20;27.80;99.90
19031;DHT22;9648;51.130;13.978;2023-08-20T11:36:47;27.90;99.90
19031;DHT22;9648;51.130;13.978;2023-08-20T11:39:14;28.00;99.90
19031;DHT22;9648;51.130;13.978;2023-08-20T11:41:43;28.00;99.90
19031;DHT22;9648;51.130;13.978;2023-08-20T11:44:10;28.10;99.90
19031;DHT22;9648;51.130;13.978;2023-08-20T11:46:42;28.10;99.90
19031;DHT22;9648;51.130;13.978;2023-08-20T11:49:11;28.20;99.90
19031;DHT22;9648;51.130;13.978;2023-08-20T11:51:38;28.20;99.90
19031;DHT22;9648;51.130;13.978;2023-08-20T11:54:06;28.20;99.90
19031;DHT22;9648;51.130;13.978;2023-08-20T11:56:33;28.20;99.90
19031;DHT22;9648;51.130;13.978;2023-08-20T11:59:02;28.20;99.90
19031;DHT22;9648;51.130;13.978;2023-08-20T12:01:32;28.30;99.90
19031;DHT22;9648;51.130;13.978;2023-08-20T12:04:00;28.30;99.90
19031;DHT22;9648;51.130;13.978;2023-08-20T12:06:28;28.50;99.90
19031;DHT22;9648;51.130;13.978;2023-08-20T12:08:56;28.50;99.90
19031;DHT22;9648;51.130;13.978;2023-08-20T12:11:24;28.70;99.90
19031;DHT22;9648;51.130;13.978;2023-08-20T12:13:52;28.60;99.90
19031;DHT22;9648;51.130;13.978;2023-08-20T12:16:21;28.50;99.90
19031;DHT22;9648;51.130;13.978;2023-08-20T12:18:49;28.60;99.90
19031;DHT22;9648;51.130;13.978;2023-08-20T12:21:16;28.70;99.90
19031;DHT22;9648;51.130;13.978;2023-08-20T12:23:43;28.70;99.90
19031;DHT22;9648;51.130;13.978;2023-08-20T12:26:09;28.90;99.90
19031;DHT22;9648;51.130;13.978;2023-08-20T12:28:36;29.00;99.90
19031;DHT22;9648;51.130;13.978;2023-08-20T12:31:03;29.00;99.90
19031;DHT22;9648;51.130;13.978;2023-08-20T12:33:31;29.10;99.90
19031;DHT22;9648;51.130;13.978;2023-08-20T12:35:58;29.10;99.90
19031;DHT22;9648;51.130;13.978;2023-08-20T12:38:25;29.00;99.90
19031;DHT22;9648;51.130;13.978;2023-08-20T12:40:52;29.10;99.90
19031;DHT22;9648;51.130;13.978;2023-08-20T12:43:19;29.10;99.90
19031;DHT22;9648;51.130;13.978;2023-08-20T12:45:46;29.00;99.90
19031;DHT22;9648;51.130;13.978;2023-08-20T12:48:12;29.00;99.90
19031;DHT22;9648;51.130;13.978;2023-08-20T12:50:41;29.10;99.90
19031;DHT22;9648;51.130;13.978;2023-08-20T12:53:08;29.10;99.90
19031;DHT22;9648;51.130;13.978;2023-08-20T12:55:35;29.00;99.90
19031;DHT22;9648;51.130;13.978;2023-08-20T12:58:02;29.20;99.90
19031;DHT22;9648;51.130;13.978;2023-08-20T13:00:29;29.30;99.90
19031;DHT22;9648;51.130;13.978;2023-08-20T13:02:57;29.40;99.90
19031;DHT22;9648;51.130;13.978;2023-08-20T13:05:24;29.50;99.90
19031;DHT22;9648;51.130;13.978;2023-08-20T13:07:56;29.70;99.90
19031;DHT22;9648;51.130;13.978;2023-08-20T13:10:23;29.80;99.90
19031;DHT22;9648;51.130;13.978;2023-08-20T13:12:52;29.80;99.90
19031;DHT22;9648;51.130;13.978;2023-08-20T13:15:21;29.80;99.90
19031;DHT22;9648;51.130;13.978;2023-08-20T13:17:49;29.80;99.90
19031;DHT22;9648;51.130;13.978;2023-08-20T13:20:17;29.80;99.90
19031;DHT22;9648;51.130;13.978;2023-08-20T13:22:48;29.80;99.90
19031;DHT22;9648;51.130;13.978;2023-08-20T13:25:16;29.80;99.90
19031;DHT22;9648;51.130;13.978;2023-08-20T13:27:43;29.70;99.90
19031;DHT22;9648;51.130;13.978;2023-08-20T13:30:11;29.80;99.90
19031;DHT22;9648;51.130;13.978;2023-08-20T13:32:38;29.80;99.90
19031;DHT22;9648;51.130;13.978;2023-08-20T13:35:05;29.70;99.90
19031;DHT22;9648;51.130;13.978;2023-08-20T13:37:33;29.80;99.90
19031;DHT22;9648;51.130;13.978;2023-08-20T13:40:00;29.80;99.90
19031;DHT22;9648;51.130;13.978;2023-08-20T13:42:30;29.90;99.90
19031;DHT22;9648;51.130;13.978;2023-08-20T13:44:57;29.90;99.90
19031;DHT22;9648;51.130;13.978;2023-08-20T13:47:24;29.90;99.90
19031;DHT22;9648;51.130;13.978;2023-08-20T13:49:51;30.00;99.90
19031;DHT22;9648;51.130;13.978;2023-08-20T13:52:18;30.10;99.90
19031;DHT22;9648;51.130;13.978;2023-08-20T13:54:45;30.30;99.90
19031;DHT22;9648;51.130;13.978;2023-08-20T13:57:12;30.50;99.90
19031;DHT22;9648;51.130;13.978;2023-08-20T13:59:40;30.50;99.90
19031;DHT22;9648;51.130;13.978;2023-08-20T14:02:07;30.60;99.90
19031;DHT22;9648;51.130;13.978;2023-08-20T14:04:34;30.60;99.90
19031;DHT22;9648;51.130;13.978;2023-08-20T14:07:01;30.50;99.90
19031;DHT22;9648;51.130;13.978;2023-08-20T14:09:28;30.40;99.90
19031;DHT22;9648;51.130;13.978;2023-08-20T14:11:55;30.30;99.90
19031;DHT22;9648;51.130;13.978;2023-08-20T14:14:22;30.40;99.90
19031;DHT22;9648;51.130;13.978;2023-08-20T14:16:50;30.40;99.90
19031;DHT22;9648;51.130;13.978;2023-08-20T14:19:17;30.40;99.90
19031;DHT22;9648;51.130;13.978;2023-08-20T14:21:44;30.30;99.00
19031;DHT22;9648;51.130;13.978;2023-08-20T14:24:11;30.00;99.90
19031;DHT22;9648;51.130;13.978;2023-08-20T14:26:38;29.90;99.90
19031;DHT22;9648;51.130;13.978;2023-08-20T14:29:05;29.90;99.90
19031;DHT22;9648;51.130;13.978;2023-08-20T14:31:32;29.90;99.90
19031;DHT22;9648;51.130;13.978;2023-08-20T14:34:00;30.00;99.90
19031;DHT22;9648;51.130;13.978;2023-08-20T14:36:27;30.20;99.90
19031;DHT22;9648;51.130;13.978;2023-08-20T14:38:54;30.30;99.90
19031;DHT22;9648;51.130;13.978;2023-08-20T14:41:21;30.40;99.90
19031;DHT22;9648;51.130;13.978;2023-08-20T14:43:48;30.40;99.90
19031;DHT22;9648;51.130;13.978;2023-08-20T14:46:15;30.40;99.90
19031;DHT22;9648;51.130;13.978;2023-08-20T14:48:42;30.50;99.90
19031;DHT22;9648;51.130;13.978;2023-08-20T14:51:11;30.50;99.90
19031;DHT22;9648;51.130;13.978;2023-08-20T14:53:38;30.50;99.90
19031;DHT22;9648;51.130;13.978;2023-08-20T14:56:05;30.60;99.90
19031;DHT22;9648;51.130;13.978;2023-08-20T14:58:31;30.60;99.90
19031;DHT22;9648;51.130;13.978;2023-08-20T15:00:58;30.60;99.90
19031;DHT22;9648;51.130;13.978;2023-08-20T15:03:25;30.60;99.90
19031;DHT22;9648;51.130;13.978;2023-08-20T15:05:52;30.70;99.80
19031;DHT22;9648;51.130;13.978;2023-08-20T15:08:20;30.70;98.00
19031;DHT22;9648;51.130;13.978;2023-08-20T15:10:56;30.50;99.80
19031;DHT22;9648;51.130;13.978;2023-08-20T15:13:23;30.60;99.90
19031;DHT22;9648;51.130;13.978;2023-08-20T15:15:51;30.60;99.90
19031;DHT22;9648;51.130;13.978;2023-08-20T15:18:18;30.60;99.90
19031;DHT22;9648;51.130;13.978;2023-08-20T15:20:45;30.60;99.90
19031;DHT22;9648;51.130;13.978;2023-08-20T15:23:12;30.60;99.90
19031;DHT22;9648;51.130;13.978;2023-08-20T15:25:40;30.70;99.90
19031;DHT22;9648;51.130;13.978;2023-08-20T15:28:07;30.70;99.90
19031;DHT22;9648;51.130;13.978;2023-08-20T15:30:34;30.70;99.90
19031;DHT22;9648;51.130;13.978;2023-08-20T15:33:00;30.60;99.90